sensor_id;sensor_type;location;lat;lon;timestamp;P1;durP1;ratioP1;P2;durP2;ratioP2
15929;SDS011;8064;51.142;4.780;2024-02-26T00:00:41;2.50;;;1.10;;
15929;SDS011;8064;51.142;4.780;2024-02-26T00:03:07;2.73;;;1.10;;
15929;SDS011;8064;51.142;4.780;2024-02-26T00:05:33;2.07;;;0.80;;
15929;SDS011;8064;51.142;4.780;2024-02-26T00:07:59;2.03;;;1.10;;
15929;SDS011;8064;51.142;4.780;2024-02-26T00:10:24;1.77;;;0.80;;
15929;SDS011;8064;51.142;4.780;2024-02-26T00:12:50;1.37;;;0.97;;
15929;SDS011;8064;51.142;4.780;2024-02-26T00:15:16;2.20;;;1.00;;
15929;SDS011;8064;51.142;4.780;2024-02-26T00:17:41;1.40;;;1.07;;
15929;SDS011;8064;51.142;4.780;2024-02-26T00:20:07;2.33;;;0.73;;
15929;SDS011;8064;51.142;4.780;2024-02-26T00:22:35;1.30;;;1.00;;
15929;SDS011;8064;51.142;4.780;2024-02-26T00:25:01;2.70;;;1.00;;
15929;SDS011;8064;51.142;4.780;2024-02-26T00:27:27;1.57;;;0.80;;
15929;SDS011;8064;51.142;4.780;2024-02-26T00:29:52;1.57;;;0.80;;
15929;SDS011;8064;51.142;4.780;2024-02-26T00:32:18;2.40;;;0.77;;
15929;SDS011;8064;51.142;4.780;2024-02-26T00:34:44;2.10;;;0.93;;
15929;SDS011;8064;51.142;4.780;2024-02-26T00:37:10;0.90;;;0.70;;
15929;SDS011;8064;51.142;4.780;2024-02-26T00:39:35;2.43;;;1.07;;
15929;SDS011;8064;51.142;4.780;2024-02-26T00:42:01;1.30;;;0.70;;
15929;SDS011;8064;51.142;4.780;2024-02-26T00:44:27;1.87;;;1.10;;
15929;SDS011;8064;51.142;4.780;2024-02-26T00:46:53;2.10;;;0.90;;
15929;SDS011;8064;51.142;4.780;2024-02-26T00:49:19;2.70;;;1.07;;
15929;SDS011;8064;51.142;4.780;2024-02-26T00:51:45;1.63;;;0.83;;
15929;SDS011;8064;51.142;4.780;2024-02-26T00:54:10;2.93;;;1.00;;
15929;SDS011;8064;51.142;4.780;2024-02-26T00:56:36;1.10;;;0.60;;
15929;SDS011;8064;51.142;4.780;2024-02-26T00:59:02;2.60;;;0.77;;
15929;SDS011;8064;51.142;4.780;2024-02-26T01:01:28;1.10;;;0.90;;
15929;SDS011;8064;51.142;4.780;2024-02-26T01:03:54;1.80;;;0.90;;
15929;SDS011;8064;51.142;4.780;2024-02-26T01:06:20;1.87;;;1.03;;
15929;SDS011;8064;51.142;4.780;2024-02-26T01:08:47;1.30;;;0.90;;
15929;SDS011;8064;51.142;4.780;2024-02-26T01:11:13;3.23;;;0.97;;
15929;SDS011;8064;51.142;4.780;2024-02-26T01:13:38;2.10;;;1.10;;
15929;SDS011;8064;51.142;4.780;2024-02-26T01:16:04;1.30;;;0.90;;
15929;SDS011;8064;51.142;4.780;2024-02-26T01:18:30;1.83;;;1.10;;
15929;SDS011;8064;51.142;4.780;2024-02-26T01:20:56;1.33;;;0.80;;
15929;SDS011;8064;51.142;4.780;2024-02-26T01:23:21;1.83;;;0.90;;
15929;SDS011;8064;51.142;4.780;2024-02-26T01:25:47;1.40;;;1.00;;
15929;SDS011;8064;51.142;4.780;2024-02-26T01:28:13;2.03;;;0.90;;
15929;SDS011;8064;51.142;4.780;2024-02-26T01:30:39;1.90;;;1.20;;
15929;SDS011;8064;51.142;4.780;2024-02-26T01:33:05;1.83;;;1.20;;
15929;SDS011;8064;51.142;4.780;2024-02-26T01:35:32;2.00;;;1.20;;
15929;SDS011;8064;51.142;4.780;2024-02-26T01:37:57;1.03;;;0.93;;
15929;SDS011;8064;51.142;4.780;2024-02-26T01:40:26;1.57;;;1.00;;
15929;SDS011;8064;51.142;4.780;2024-02-26T01:42:52;1.50;;;1.03;;
15929;SDS011;8064;51.142;4.780;2024-02-26T01:45:18;1.77;;;1.00;;
15929;SDS011;8064;51.142;4.780;2024-02-26T01:47:50;1.53;;;1.00;;
15929;SDS011;8064;51.142;4.780;2024-02-26T01:50:17;1.50;;;1.13;;
15929;SDS011;8064;51.142;4.780;2024-02-26T01:52:44;2.60;;;1.10;;
15929;SDS011;8064;51.142;4.780;2024-02-26T01:55:12;1.20;;;0.90;;
15929;SDS011;8064;51.142;4.780;2024-02-26T01:57:39;1.57;;;1.13;;
15929;SDS011;8064;51.142;4.780;2024-02-26T02:00:07;1.50;;;1.13;;
15929;SDS011;8064;51.142;4.780;2024-02-26T02:02:33;1.20;;;1.03;;
15929;SDS011;8064;51.142;4.780;2024-02-26T02:04:59;2.10;;;1.33;;
15929;SDS011;8064;51.142;4.780;2024-02-26T02:07:26;1.67;;;1.40;;
15929;SDS011;8064;51.142;4.780;2024-02-26T02:09:52;1.13;;;1.00;;
15929;SDS011;8064;51.142;4.780;2024-02-26T02:12:19;2.10;;;1.20;;
15929;SDS011;8064;51.142;4.780;2024-02-26T02:14:46;1.63;;;1.03;;
15929;SDS011;8064;51.142;4.780;2024-02-26T02:17:12;2.07;;;1.10;;
15929;SDS011;8064;51.142;4.780;2024-02-26T02:19:38;2.63;;;1.13;;
15929;SDS011;8064;51.142;4.780;2024-02-26T02:22:04;1.20;;;1.00;;
15929;SDS011;8064;51.142;4.780;2024-02-26T02:24:29;1.37;;;1.17;;
15929;SDS011;8064;51.142;4.780;2024-02-26T02:26:55;2.37;;;1.20;;
15929;SDS011;8064;51.142;4.780;2024-02-26T02:29:21;2.50;;;1.20;;
15929;SDS011;8064;51.142;4.780;2024-02-26T02:31:47;2.23;;;1.10;;
15929;SDS011;8064;51.142;4.780;2024-02-26T02:34:13;1.37;;;1.17;;
15929;SDS011;8064;51.142;4.780;2024-02-26T02:36:49;2.53;;;1.43;;
15929;SDS011;8064;51.142;4.780;2024-02-26T02:39:17;1.47;;;1.37;;
15929;SDS011;8064;51.142;4.780;2024-02-26T02:41:42;2.20;;;1.13;;
15929;SDS011;8064;51.142;4.780;2024-02-26T02:44:09;1.67;;;1.30;;
15929;SDS011;8064;51.142;4.780;2024-02-26T02:46:34;2.67;;;1.10;;
15929;SDS011;8064;51.142;4.780;2024-02-26T02:49:00;1.90;;;1.30;;
15929;SDS011;8064;51.142;4.780;2024-02-26T02:51:26;2.93;;;1.40;;
15929;SDS011;8064;51.142;4.780;2024-02-26T02:53:52;2.60;;;1.47;;
15929;SDS011;8064;51.142;4.780;2024-02-26T02:56:18;2.03;;;1.53;;
15929;SDS011;8064;51.142;4.780;2024-02-26T02:58:44;2.70;;;1.40;;
15929;SDS011;8064;51.142;4.780;2024-02-26T03:01:09;3.13;;;1.83;;
15929;SDS011;8064;51.142;4.780;2024-02-26T03:03:36;3.07;;;1.50;;
15929;SDS011;8064;51.142;4.780;2024-02-26T03:06:02;3.20;;;1.77;;
15929;SDS011;8064;51.142;4.780;2024-02-26T03:08:28;2.97;;;1.50;;
15929;SDS011;8064;51.142;4.780;2024-02-26T03:10:54;2.10;;;1.40;;
15929;SDS011;8064;51.142;4.780;2024-02-26T03:13:20;2.30;;;1.90;;
15929;SDS011;8064;51.142;4.780;2024-02-26T03:15:46;2.13;;;1.60;;
15929;SDS011;8064;51.142;4.780;2024-02-26T03:18:12;2.27;;;1.90;;
15929;SDS011;8064;51.142;4.780;2024-02-26T03:20:37;2.10;;;1.80;;
15929;SDS011;8064;51.142;4.780;2024-02-26T03:23:03;4.57;;;2.30;;
15929;SDS011;8064;51.142;4.780;2024-02-26T03:25:29;2.90;;;1.97;;
15929;SDS011;8064;51.142;4.780;2024-02-26T03:27:55;2.67;;;1.90;;
15929;SDS011;8064;51.142;4.780;2024-02-26T03:30:20;2.77;;;2.20;;
15929;SDS011;8064;51.142;4.780;2024-02-26T03:32:46;3.73;;;2.00;;
15929;SDS011;8064;51.142;4.780;2024-02-26T03:35:12;2.57;;;2.00;;
15929;SDS011;8064;51.142;4.780;2024-02-26T03:37:38;2.63;;;2.07;;
15929;SDS011;8064;51.142;4.780;2024-02-26T03:40:04;2.97;;;2.50;;
15929;SDS011;8064;51.142;4.780;2024-02-26T03:42:31;4.33;;;2.67;;
15929;SDS011;8064;51.142;4.780;2024-02-26T03:44:56;3.17;;;2.43;;
15929;SDS011;8064;51.142;4.780;2024-02-26T03:47:22;4.73;;;2.83;;
15929;SDS011;8064;51.142;4.780;2024-02-26T03:49:48;3.17;;;2.80;;
15929;SDS011;8064;51.142;4.780;2024-02-26T03:52:14;3.80;;;2.80;;
15929;SDS011;8064;51.142;4.780;2024-02-26T03:54:40;4.87;;;3.00;;
15929;SDS011;8064;51.142;4.780;2024-02-26T03:57:05;3.77;;;2.60;;
15929;SDS011;8064;51.142;4.780;2024-02-26T03:59:31;3.57;;;2.73;;
15929;SDS011;8064;51.142;4.780;2024-02-26T04:01:57;4.47;;;2.90;;
15929;SDS011;8064;51.142;4.780;2024-02-26T04:04:22;3.77;;;3.00;;
15929;SDS011;8064;51.142;4.780;2024-02-26T04:06:48;3.37;;;2.80;;
15929;SDS011;8064;51.142;4.780;2024-02-26T04:09:14;3.03;;;2.67;;
15929;SDS011;8064;51.142;4.780;2024-02-26T04:11:40;5.90;;;2.77;;
15929;SDS011;8064;51.142;4.780;2024-02-26T04:14:06;2.70;;;2.30;;
15929;SDS011;8064;51.142;4.780;2024-02-26T04:16:33;4.03;;;2.77;;
15929;SDS011;8064;51.142;4.780;2024-02-26T04:19:00;2.93;;;2.57;;
15929;SDS011;8064;51.142;4.780;2024-02-26T04:21:26;3.47;;;2.53;;
15929;SDS011;8064;51.142;4.780;2024-02-26T04:23:52;4.70;;;2.50;;
15929;SDS011;8064;51.142;4.780;2024-02-26T04:26:20;3.50;;;2.70;;
15929;SDS011;8064;51.142;4.780;2024-02-26T04:28:46;3.90;;;2.53;;
15929;SDS011;8064;51.142;4.780;2024-02-26T04:31:12;2.90;;;2.47;;
15929;SDS011;8064;51.142;4.780;2024-02-26T04:33:38;3.67;;;2.43;;
15929;SDS011;8064;51.142;4.780;2024-02-26T04:36:04;3.67;;;2.47;;
15929;SDS011;8064;51.142;4.780;2024-02-26T04:38:30;2.70;;;2.30;;
15929;SDS011;8064;51.142;4.780;2024-02-26T04:40:55;3.60;;;2.67;;
15929;SDS011;8064;51.142;4.780;2024-02-26T04:43:21;7.47;;;2.90;;
15929;SDS011;8064;51.142;4.780;2024-02-26T04:45:47;2.60;;;2.30;;
15929;SDS011;8064;51.142;4.780;2024-02-26T04:48:13;4.40;;;2.47;;
15929;SDS011;8064;51.142;4.780;2024-02-26T04:50:38;2.90;;;2.60;;
15929;SDS011;8064;51.142;4.780;2024-02-26T04:53:04;4.63;;;2.47;;
15929;SDS011;8064;51.142;4.780;2024-02-26T04:55:30;3.87;;;2.40;;
15929;SDS011;8064;51.142;4.780;2024-02-26T04:57:56;3.47;;;2.60;;
15929;SDS011;8064;51.142;4.780;2024-02-26T05:00:22;2.70;;;2.33;;
15929;SDS011;8064;51.142;4.780;2024-02-26T05:02:47;2.23;;;1.97;;
15929;SDS011;8064;51.142;4.780;2024-02-26T05:05:13;2.90;;;2.20;;
15929;SDS011;8064;51.142;4.780;2024-02-26T05:07:40;2.90;;;2.30;;
15929;SDS011;8064;51.142;4.780;2024-02-26T05:10:07;2.97;;;2.40;;
15929;SDS011;8064;51.142;4.780;2024-02-26T05:12:33;2.77;;;2.20;;
15929;SDS011;8064;51.142;4.780;2024-02-26T05:15:00;2.60;;;2.40;;
15929;SDS011;8064;51.142;4.780;2024-02-26T05:17:27;2.80;;;2.10;;
15929;SDS011;8064;51.142;4.780;2024-02-26T05:19:53;2.50;;;1.90;;
15929;SDS011;8064;51.142;4.780;2024-02-26T05:22:19;3.73;;;2.40;;
15929;SDS011;8064;51.142;4.780;2024-02-26T05:24:44;2.63;;;2.13;;
15929;SDS011;8064;51.142;4.780;2024-02-26T05:27:10;3.37;;;2.30;;
15929;SDS011;8064;51.142;4.780;2024-02-26T05:29:37;2.10;;;1.90;;
15929;SDS011;8064;51.142;4.780;2024-02-26T05:32:03;2.57;;;2.10;;
15929;SDS011;8064;51.142;4.780;2024-02-26T05:34:30;2.20;;;2.00;;
15929;SDS011;8064;51.142;4.780;2024-02-26T05:36:56;2.17;;;1.97;;
15929;SDS011;8064;51.142;4.780;2024-02-26T05:39:22;2.67;;;2.20;;
15929;SDS011;8064;51.142;4.780;2024-02-26T05:41:47;2.70;;;2.00;;
15929;SDS011;8064;51.142;4.780;2024-02-26T05:44:14;2.30;;;2.10;;
15929;SDS011;8064;51.142;4.780;2024-02-26T05:46:41;3.27;;;2.43;;
15929;SDS011;8064;51.142;4.780;2024-02-26T05:49:07;2.23;;;2.03;;
15929;SDS011;8064;51.142;4.780;2024-02-26T05:51:33;2.50;;;2.30;;
15929;SDS011;8064;51.142;4.780;2024-02-26T05:53:58;2.23;;;2.03;;
15929;SDS011;8064;51.142;4.780;2024-02-26T05:56:24;2.40;;;2.20;;
15929;SDS011;8064;51.142;4.780;2024-02-26T05:58:50;3.60;;;2.30;;
15929;SDS011;8064;51.142;4.780;2024-02-26T06:01:16;2.77;;;2.43;;
15929;SDS011;8064;51.142;4.780;2024-02-26T06:03:42;2.77;;;2.43;;
15929;SDS011;8064;51.142;4.780;2024-02-26T06:06:09;2.70;;;2.50;;
15929;SDS011;8064;51.142;4.780;2024-02-26T06:08:36;2.60;;;2.40;;
15929;SDS011;8064;51.142;4.780;2024-02-26T06:11:07;3.10;;;2.70;;
15929;SDS011;8064;51.142;4.780;2024-02-26T06:13:34;2.87;;;2.37;;
15929;SDS011;8064;51.142;4.780;2024-02-26T06:16:00;2.83;;;2.63;;
15929;SDS011;8064;51.142;4.780;2024-02-26T06:18:26;2.83;;;2.53;;
15929;SDS011;8064;51.142;4.780;2024-02-26T06:20:52;2.73;;;2.53;;
15929;SDS011;8064;51.142;4.780;2024-02-26T06:23:17;3.37;;;2.43;;
15929;SDS011;8064;51.142;4.780;2024-02-26T06:25:43;3.20;;;2.90;;
15929;SDS011;8064;51.142;4.780;2024-02-26T06:28:09;3.17;;;2.70;;
15929;SDS011;8064;51.142;4.780;2024-02-26T06:30:34;2.80;;;2.60;;
15929;SDS011;8064;51.142;4.780;2024-02-26T06:33:01;2.87;;;2.43;;
15929;SDS011;8064;51.142;4.780;2024-02-26T06:35:26;3.77;;;2.70;;
15929;SDS011;8064;51.142;4.780;2024-02-26T06:37:52;2.77;;;2.43;;
15929;SDS011;8064;51.142;4.780;2024-02-26T06:40:19;2.77;;;2.53;;
15929;SDS011;8064;51.142;4.780;2024-02-26T06:42:45;2.77;;;2.57;;
15929;SDS011;8064;51.142;4.780;2024-02-26T06:45:12;3.17;;;2.63;;
15929;SDS011;8064;51.142;4.780;2024-02-26T06:47:38;2.57;;;2.30;;
15929;SDS011;8064;51.142;4.780;2024-02-26T06:50:04;2.80;;;2.40;;
15929;SDS011;8064;51.142;4.780;2024-02-26T06:52:30;2.80;;;2.40;;
15929;SDS011;8064;51.142;4.780;2024-02-26T06:54:55;2.37;;;2.17;;
15929;SDS011;8064;51.142;4.780;2024-02-26T06:57:21;2.97;;;2.63;;
15929;SDS011;8064;51.142;4.780;2024-02-26T06:59:47;3.30;;;2.40;;
15929;SDS011;8064;51.142;4.780;2024-02-26T07:02:13;2.53;;;2.30;;
15929;SDS011;8064;51.142;4.780;2024-02-26T07:04:39;2.13;;;2.00;;
15929;SDS011;8064;51.142;4.780;2024-02-26T07:07:05;2.27;;;2.03;;
15929;SDS011;8064;51.142;4.780;2024-02-26T07:09:32;2.67;;;2.20;;
15929;SDS011;8064;51.142;4.780;2024-02-26T07:11:57;2.50;;;2.13;;
15929;SDS011;8064;51.142;4.780;2024-02-26T07:14:23;2.30;;;2.10;;
15929;SDS011;8064;51.142;4.780;2024-02-26T07:16:50;2.17;;;1.97;;
15929;SDS011;8064;51.142;4.780;2024-02-26T07:19:16;2.67;;;2.30;;
15929;SDS011;8064;51.142;4.780;2024-02-26T07:21:41;2.40;;;2.20;;
15929;SDS011;8064;51.142;4.780;2024-02-26T07:24:08;2.33;;;1.77;;
15929;SDS011;8064;51.142;4.780;2024-02-26T07:26:33;4.30;;;3.40;;
15929;SDS011;8064;51.142;4.780;2024-02-26T07:29:00;2.20;;;2.00;;
15929;SDS011;8064;51.142;4.780;2024-02-26T07:31:26;3.00;;;2.07;;
15929;SDS011;8064;51.142;4.780;2024-02-26T07:33:52;2.40;;;1.80;;
15929;SDS011;8064;51.142;4.780;2024-02-26T07:36:18;2.40;;;2.20;;
15929;SDS011;8064;51.142;4.780;2024-02-26T07:38:43;2.43;;;2.23;;
15929;SDS011;8064;51.142;4.780;2024-02-26T07:41:09;3.00;;;2.13;;
15929;SDS011;8064;51.142;4.780;2024-02-26T07:43:36;2.67;;;2.10;;
15929;SDS011;8064;51.142;4.780;2024-02-26T07:46:02;2.20;;;2.00;;
15929;SDS011;8064;51.142;4.780;2024-02-26T07:48:28;2.63;;;1.90;;
15929;SDS011;8064;51.142;4.780;2024-02-26T07:50:54;2.53;;;2.33;;
15929;SDS011;8064;51.142;4.780;2024-02-26T07:53:21;2.43;;;2.23;;
15929;SDS011;8064;51.142;4.780;2024-02-26T07:55:47;2.67;;;2.00;;
15929;SDS011;8064;51.142;4.780;2024-02-26T07:58:13;2.40;;;2.00;;
15929;SDS011;8064;51.142;4.780;2024-02-26T08:00:39;2.73;;;2.30;;
15929;SDS011;8064;51.142;4.780;2024-02-26T08:03:05;3.83;;;2.10;;
15929;SDS011;8064;51.142;4.780;2024-02-26T08:05:30;2.30;;;2.10;;
15929;SDS011;8064;51.142;4.780;2024-02-26T08:07:56;2.70;;;2.37;;
15929;SDS011;8064;51.142;4.780;2024-02-26T08:10:22;3.30;;;2.47;;
15929;SDS011;8064;51.142;4.780;2024-02-26T08:12:47;3.40;;;2.27;;
15929;SDS011;8064;51.142;4.780;2024-02-26T08:15:13;2.57;;;2.20;;
15929;SDS011;8064;51.142;4.780;2024-02-26T08:17:39;4.30;;;2.40;;
15929;SDS011;8064;51.142;4.780;2024-02-26T08:20:06;2.63;;;2.40;;
15929;SDS011;8064;51.142;4.780;2024-02-26T08:22:33;2.43;;;2.23;;
15929;SDS011;8064;51.142;4.780;2024-02-26T08:25:05;2.70;;;2.50;;
15929;SDS011;8064;51.142;4.780;2024-02-26T08:27:34;2.53;;;2.33;;
15929;SDS011;8064;51.142;4.780;2024-02-26T08:29:59;3.83;;;2.87;;
15929;SDS011;8064;51.142;4.780;2024-02-26T08:32:25;2.97;;;2.73;;
15929;SDS011;8064;51.142;4.780;2024-02-26T08:34:51;3.80;;;2.90;;
15929;SDS011;8064;51.142;4.780;2024-02-26T08:37:17;3.47;;;2.90;;
15929;SDS011;8064;51.142;4.780;2024-02-26T08:39:42;3.63;;;3.00;;
15929;SDS011;8064;51.142;4.780;2024-02-26T08:42:08;3.13;;;2.53;;
15929;SDS011;8064;51.142;4.780;2024-02-26T08:44:34;3.27;;;2.97;;
15929;SDS011;8064;51.142;4.780;2024-02-26T08:47:01;3.17;;;2.87;;
15929;SDS011;8064;51.142;4.780;2024-02-26T08:49:30;3.10;;;2.80;;
15929;SDS011;8064;51.142;4.780;2024-02-26T08:51:57;2.60;;;2.40;;
15929;SDS011;8064;51.142;4.780;2024-02-26T08:54:23;3.00;;;2.80;;
15929;SDS011;8064;51.142;4.780;2024-02-26T08:56:49;3.30;;;3.00;;
15929;SDS011;8064;51.142;4.780;2024-02-26T08:59:15;3.50;;;3.20;;
15929;SDS011;8064;51.142;4.780;2024-02-26T09:01:47;4.20;;;3.50;;
15929;SDS011;8064;51.142;4.780;2024-02-26T09:04:13;3.23;;;2.93;;
15929;SDS011;8064;51.142;4.780;2024-02-26T09:06:38;3.20;;;2.90;;
15929;SDS011;8064;51.142;4.780;2024-02-26T09:09:05;2.97;;;2.70;;
15929;SDS011;8064;51.142;4.780;2024-02-26T09:11:31;3.17;;;2.87;;
15929;SDS011;8064;51.142;4.780;2024-02-26T09:13:56;3.30;;;3.00;;
15929;SDS011;8064;51.142;4.780;2024-02-26T09:16:22;3.00;;;2.80;;
15929;SDS011;8064;51.142;4.780;2024-02-26T09:18:48;3.57;;;2.93;;
15929;SDS011;8064;51.142;4.780;2024-02-26T09:21:13;3.33;;;3.00;;
15929;SDS011;8064;51.142;4.780;2024-02-26T09:23:40;3.20;;;2.90;;
15929;SDS011;8064;51.142;4.780;2024-02-26T09:26:06;3.17;;;2.70;;
15929;SDS011;8064;51.142;4.780;2024-02-26T09:28:31;3.30;;;3.00;;
15929;SDS011;8064;51.142;4.780;2024-02-26T09:31:02;4.63;;;2.73;;
15929;SDS011;8064;51.142;4.780;2024-02-26T09:33:29;2.50;;;2.30;;
15929;SDS011;8064;51.142;4.780;2024-02-26T09:35:55;3.20;;;2.90;;
15929;SDS011;8064;51.142;4.780;2024-02-26T09:38:20;2.47;;;2.27;;
15929;SDS011;8064;51.142;4.780;2024-02-26T09:40:47;2.80;;;2.60;;
15929;SDS011;8064;51.142;4.780;2024-02-26T09:43:14;2.90;;;2.70;;
15929;SDS011;8064;51.142;4.780;2024-02-26T09:45:42;3.47;;;2.60;;
15929;SDS011;8064;51.142;4.780;2024-02-26T09:48:08;2.70;;;2.47;;
15929;SDS011;8064;51.142;4.780;2024-02-26T09:50:38;2.90;;;2.33;;
15929;SDS011;8064;51.142;4.780;2024-02-26T09:53:06;2.90;;;2.37;;
15929;SDS011;8064;51.142;4.780;2024-02-26T09:55:35;2.50;;;2.30;;
15929;SDS011;8064;51.142;4.780;2024-02-26T09:58:01;2.57;;;2.37;;
15929;SDS011;8064;51.142;4.780;2024-02-26T10:00:30;2.60;;;2.30;;
15929;SDS011;8064;51.142;4.780;2024-02-26T10:02:58;3.53;;;2.70;;
15929;SDS011;8064;51.142;4.780;2024-02-26T10:05:29;2.53;;;2.33;;
15929;SDS011;8064;51.142;4.780;2024-02-26T10:07:56;2.40;;;2.20;;
15929;SDS011;8064;51.142;4.780;2024-02-26T10:10:25;2.97;;;2.67;;
15929;SDS011;8064;51.142;4.780;2024-02-26T10:12:52;2.70;;;2.40;;
15929;SDS011;8064;51.142;4.780;2024-02-26T10:15:18;2.63;;;2.33;;
15929;SDS011;8064;51.142;4.780;2024-02-26T10:17:44;3.17;;;2.40;;
15929;SDS011;8064;51.142;4.780;2024-02-26T10:20:11;2.23;;;1.90;;
15929;SDS011;8064;51.142;4.780;2024-02-26T10:22:38;2.50;;;2.30;;
15929;SDS011;8064;51.142;4.780;2024-02-26T10:25:03;3.83;;;2.70;;
15929;SDS011;8064;51.142;4.780;2024-02-26T10:27:29;2.63;;;2.30;;
15929;SDS011;8064;51.142;4.780;2024-02-26T10:29:56;3.20;;;2.90;;
15929;SDS011;8064;51.142;4.780;2024-02-26T10:32:22;2.50;;;2.30;;
15929;SDS011;8064;51.142;4.780;2024-02-26T10:34:48;2.87;;;2.60;;
15929;SDS011;8064;51.142;4.780;2024-02-26T10:37:21;2.60;;;2.40;;
15929;SDS011;8064;51.142;4.780;2024-02-26T10:39:47;2.40;;;2.20;;
15929;SDS011;8064;51.142;4.780;2024-02-26T10:42:13;3.03;;;2.73;;
15929;SDS011;8064;51.142;4.780;2024-02-26T10:44:40;3.43;;;2.63;;
15929;SDS011;8064;51.142;4.780;2024-02-26T10:47:07;2.80;;;2.60;;
15929;SDS011;8064;51.142;4.780;2024-02-26T10:49:35;2.47;;;2.27;;
15929;SDS011;8064;51.142;4.780;2024-02-26T10:52:00;3.60;;;2.70;;
15929;SDS011;8064;51.142;4.780;2024-02-26T10:54:29;3.00;;;2.70;;
15929;SDS011;8064;51.142;4.780;2024-02-26T10:56:57;3.97;;;2.67;;
15929;SDS011;8064;51.142;4.780;2024-02-26T10:59:24;3.33;;;2.37;;
15929;SDS011;8064;51.142;4.780;2024-02-26T11:01:51;3.10;;;2.80;;
15929;SDS011;8064;51.142;4.780;2024-02-26T11:04:17;3.20;;;2.90;;
15929;SDS011;8064;51.142;4.780;2024-02-26T11:06:44;3.60;;;2.87;;
15929;SDS011;8064;51.142;4.780;2024-02-26T11:09:12;3.37;;;2.77;;
15929;SDS011;8064;51.142;4.780;2024-02-26T11:11:39;2.40;;;2.20;;
15929;SDS011;8064;51.142;4.780;2024-02-26T11:14:06;2.67;;;2.40;;
15929;SDS011;8064;51.142;4.780;2024-02-26T11:16:35;3.20;;;2.70;;
15929;SDS011;8064;51.142;4.780;2024-02-26T11:19:02;2.50;;;2.30;;
15929;SDS011;8064;51.142;4.780;2024-02-26T11:21:28;3.33;;;2.53;;
15929;SDS011;8064;51.142;4.780;2024-02-26T11:24:03;2.83;;;2.50;;
15929;SDS011;8064;51.142;4.780;2024-02-26T11:26:32;3.00;;;2.80;;
15929;SDS011;8064;51.142;4.780;2024-02-26T11:29:01;2.90;;;2.27;;
15929;SDS011;8064;51.142;4.780;2024-02-26T11:31:27;3.57;;;2.40;;
15929;SDS011;8064;51.142;4.780;2024-02-26T11:33:54;3.10;;;2.77;;
15929;SDS011;8064;51.142;4.780;2024-02-26T11:36:21;3.73;;;2.80;;
15929;SDS011;8064;51.142;4.780;2024-02-26T11:38:49;2.80;;;2.50;;
15929;SDS011;8064;51.142;4.780;2024-02-26T11:41:17;3.07;;;2.60;;
15929;SDS011;8064;51.142;4.780;2024-02-26T11:43:51;4.20;;;2.57;;
15929;SDS011;8064;51.142;4.780;2024-02-26T11:46:24;2.40;;;2.20;;
15929;SDS011;8064;51.142;4.780;2024-02-26T11:48:51;4.03;;;2.90;;
15929;SDS011;8064;51.142;4.780;2024-02-26T11:51:24;3.23;;;2.90;;
15929;SDS011;8064;51.142;4.780;2024-02-26T11:53:52;2.67;;;2.47;;
15929;SDS011;8064;51.142;4.780;2024-02-26T11:58:45;3.00;;;2.60;;
15929;SDS011;8064;51.142;4.780;2024-02-26T12:04:04;3.27;;;2.90;;
15929;SDS011;8064;51.142;4.780;2024-02-26T12:06:31;3.20;;;2.90;;
15929;SDS011;8064;51.142;4.780;2024-02-26T12:09:44;3.30;;;3.00;;
15929;SDS011;8064;51.142;4.780;2024-02-26T12:12:13;3.30;;;3.00;;
15929;SDS011;8064;51.142;4.780;2024-02-26T12:14:51;4.03;;;3.67;;
15929;SDS011;8064;51.142;4.780;2024-02-26T12:17:21;3.60;;;2.80;;
15929;SDS011;8064;51.142;4.780;2024-02-26T12:19:48;3.50;;;3.20;;
15929;SDS011;8064;51.142;4.780;2024-02-26T12:22:15;4.37;;;3.60;;
15929;SDS011;8064;51.142;4.780;2024-02-26T12:24:43;4.20;;;3.60;;
15929;SDS011;8064;51.142;4.780;2024-02-26T12:27:09;3.80;;;3.40;;
15929;SDS011;8064;51.142;4.780;2024-02-26T12:29:34;4.57;;;3.87;;
15929;SDS011;8064;51.142;4.780;2024-02-26T12:32:00;3.70;;;3.40;;
15929;SDS011;8064;51.142;4.780;2024-02-26T12:34:28;4.47;;;4.07;;
15929;SDS011;8064;51.142;4.780;2024-02-26T12:36:54;4.00;;;3.60;;
15929;SDS011;8064;51.142;4.780;2024-02-26T12:39:20;4.23;;;3.93;;
15929;SDS011;8064;51.142;4.780;2024-02-26T12:41:46;4.27;;;3.80;;
15929;SDS011;8064;51.142;4.780;2024-02-26T12:44:17;3.90;;;3.60;;
15929;SDS011;8064;51.142;4.780;2024-02-26T12:46:44;4.17;;;3.77;;
15929;SDS011;8064;51.142;4.780;2024-02-26T12:49:14;3.93;;;3.53;;
15929;SDS011;8064;51.142;4.780;2024-02-26T12:51:42;4.00;;;3.57;;
15929;SDS011;8064;51.142;4.780;2024-02-26T12:54:09;4.30;;;3.90;;
15929;SDS011;8064;51.142;4.780;2024-02-26T12:56:35;4.23;;;3.70;;
15929;SDS011;8064;51.142;4.780;2024-02-26T12:59:01;4.07;;;3.53;;
15929;SDS011;8064;51.142;4.780;2024-02-26T13:01:28;4.50;;;3.90;;
15929;SDS011;8064;51.142;4.780;2024-02-26T13:03:55;4.33;;;3.67;;
15929;SDS011;8064;51.142;4.780;2024-02-26T13:06:21;4.00;;;3.60;;
15929;SDS011;8064;51.142;4.780;2024-02-26T13:08:48;4.10;;;3.70;;
15929;SDS011;8064;51.142;4.780;2024-02-26T13:11:14;4.23;;;3.73;;
15929;SDS011;8064;51.142;4.780;2024-02-26T13:13:40;4.53;;;3.97;;
15929;SDS011;8064;51.142;4.780;2024-02-26T13:16:06;4.97;;;4.17;;
15929;SDS011;8064;51.142;4.780;2024-02-26T13:18:36;4.20;;;3.73;;
15929;SDS011;8064;51.142;4.780;2024-02-26T13:21:08;9.43;;;4.70;;
15929;SDS011;8064;51.142;4.780;2024-02-26T13:23:35;5.13;;;4.63;;
15929;SDS011;8064;51.142;4.780;2024-02-26T13:26:01;5.17;;;4.67;;
15929;SDS011;8064;51.142;4.780;2024-02-26T13:28:27;5.70;;;4.57;;
15929;SDS011;8064;51.142;4.780;2024-02-26T13:30:54;5.63;;;4.70;;
15929;SDS011;8064;51.142;4.780;2024-02-26T13:33:22;5.13;;;4.63;;
15929;SDS011;8064;51.142;4.780;2024-02-26T13:35:49;4.47;;;4.03;;
15929;SDS011;8064;51.142;4.780;2024-02-26T13:38:15;5.63;;;4.87;;
15929;SDS011;8064;51.142;4.780;2024-02-26T13:40:41;5.20;;;4.67;;
15929;SDS011;8064;51.142;4.780;2024-02-26T13:43:06;5.17;;;4.67;;
15929;SDS011;8064;51.142;4.780;2024-02-26T13:45:34;4.93;;;4.23;;
15929;SDS011;8064;51.142;4.780;2024-02-26T13:48:02;5.20;;;4.63;;
15929;SDS011;8064;51.142;4.780;2024-02-26T13:50:29;6.03;;;5.00;;
15929;SDS011;8064;51.142;4.780;2024-02-26T13:52:55;6.43;;;5.57;;
15929;SDS011;8064;51.142;4.780;2024-02-26T13:55:22;5.70;;;4.93;;
15929;SDS011;8064;51.142;4.780;2024-02-26T13:57:51;5.57;;;4.93;;
15929;SDS011;8064;51.142;4.780;2024-02-26T14:00:18;5.80;;;5.00;;
15929;SDS011;8064;51.142;4.780;2024-02-26T14:02:45;5.13;;;4.20;;
15929;SDS011;8064;51.142;4.780;2024-02-26T14:05:11;6.43;;;4.90;;
15929;SDS011;8064;51.142;4.780;2024-02-26T14:07:37;4.97;;;4.47;;
15929;SDS011;8064;51.142;4.780;2024-02-26T14:10:03;5.93;;;4.77;;
15929;SDS011;8064;51.142;4.780;2024-02-26T14:12:29;5.27;;;4.30;;
15929;SDS011;8064;51.142;4.780;2024-02-26T14:14:54;5.90;;;5.00;;
15929;SDS011;8064;51.142;4.780;2024-02-26T14:17:22;5.47;;;4.70;;
15929;SDS011;8064;51.142;4.780;2024-02-26T14:19:47;6.23;;;4.13;;
15929;SDS011;8064;51.142;4.780;2024-02-26T14:22:14;4.90;;;4.40;;
15929;SDS011;8064;51.142;4.780;2024-02-26T14:24:41;4.93;;;4.33;;
15929;SDS011;8064;51.142;4.780;2024-02-26T14:27:08;4.83;;;4.00;;
15929;SDS011;8064;51.142;4.780;2024-02-26T14:29:36;4.97;;;4.47;;
15929;SDS011;8064;51.142;4.780;2024-02-26T14:32:03;4.30;;;3.90;;
15929;SDS011;8064;51.142;4.780;2024-02-26T14:34:30;4.90;;;3.83;;
15929;SDS011;8064;51.142;4.780;2024-02-26T14:36:56;5.03;;;3.50;;
15929;SDS011;8064;51.142;4.780;2024-02-26T14:39:22;4.70;;;4.07;;
15929;SDS011;8064;51.142;4.780;2024-02-26T14:41:48;4.30;;;3.90;;
15929;SDS011;8064;51.142;4.780;2024-02-26T14:44:14;4.53;;;4.07;;
15929;SDS011;8064;51.142;4.780;2024-02-26T14:46:40;4.13;;;3.73;;
15929;SDS011;8064;51.142;4.780;2024-02-26T14:49:07;3.60;;;3.30;;
15929;SDS011;8064;51.142;4.780;2024-02-26T14:51:35;3.80;;;3.40;;
15929;SDS011;8064;51.142;4.780;2024-02-26T14:54:05;3.90;;;3.20;;
15929;SDS011;8064;51.142;4.780;2024-02-26T14:56:31;3.40;;;3.10;;
15929;SDS011;8064;51.142;4.780;2024-02-26T14:58:57;3.50;;;3.20;;
15929;SDS011;8064;51.142;4.780;2024-02-26T15:01:23;3.07;;;2.77;;